Time;durP1;ratioP1;P1;durP2;ratioP2;P2;SDS_P1;SDS_P2;PMS_P1;PMS_P2;Temp;Humidity;BMP_temperature;BMP_pressure;BME280_temperature;BME280_humidity;BME280_pressure;Samples;Min_cycle;Max_cycle;Signal;HPM_P1;HPM_P2
2023/08/27 00:01:59;;;;;;;44.00;11.10;;;15.50;99.90;;;;;;5031095;28;20099;-59
2023/08/27 00:04:25;;;;;;;17.00;9.05;;;15.50;99.90;;;;;;5031366;28;20033;-59
2023/08/27 00:06:50;;;;;;;46.60;11.05;;;15.40;99.90;;;;;;5032038;28;20033;-57
2023/08/27 00:09:16;;;;;;;99.35;13.27;;;15.40;99.90;;;;;;5032830;28;20037;-58
2023/08/27 00:11:42;;;;;;;28.85;10.98;;;15.40;99.90;;;;;;5031440;28;20482;-58
2023/08/27 00:14:08;;;;;;;30.00;12.02;;;15.40;99.90;;;;;;5032579;28;20038;-57
2023/08/27 00:16:35;;;;;;;29.13;12.77;;;15.40;99.90;;;;;;5027189;28;20379;-58
2023/08/27 00:19:01;;;;;;;22.42;12.90;;;15.40;99.90;;;;;;5031786;28;20869;-60
2023/08/27 00:21:26;;;;;;;16.02;10.60;;;15.40;99.90;;;;;;5031237;28;20033;-60
2023/08/27 00:23:52;;;;;;;14.10;10.25;;;15.40;99.90;;;;;;5032714;28;20026;-60
2023/08/27 00:26:17;;;;;;;15.63;10.95;;;15.30;99.90;;;;;;5027990;28;20579;-60
2023/08/27 00:28:43;;;;;;;1999.90;999.90;;;15.20;99.90;;;;;;5027325;28;20105;-60
2023/08/27 00:31:08;;;;;;;42.13;10.65;;;15.20;99.90;;;;;;5027901;28;20448;-59
2023/08/27 00:33:35;;;;;;;588.63;46.08;;;15.10;99.90;;;;;;5028937;28;20030;-60
2023/08/27 00:36:00;;;;;;;114.00;9.73;;;15.10;99.90;;;;;;5029788;28;20189;-61
2023/08/27 00:38:26;;;;;;;105.65;10.27;;;15.00;99.90;;;;;;5029927;28;20261;-59
2023/08/27 00:40:51;;;;;;;57.90;8.98;;;15.00;99.90;;;;;;5026884;28;20113;-59
2023/08/27 00:43:18;;;;;;;35.17;7.88;;;15.10;99.90;;;;;;5028645;28;20390;-59
2023/08/27 00:45:44;;;;;;;89.57;8.93;;;15.10;99.90;;;;;;5028038;28;20033;-60
2023/08/27 00:48:10;;;;;;;55.20;8.05;;;15.10;99.90;;;;;;5025856;28;20030;-59
2023/08/27 00:50:36;;;;;;;74.95;8.57;;;15.20;99.90;;;;;;5029616;28;20028;-59
2023/08/27 00:53:02;;;;;;;31.80;7.50;;;15.20;99.90;;;;;;5031234;28;20030;-59
2023/08/27 00:55:28;;;;;;;55.33;9.43;;;15.20;99.90;;;;;;5027533;28;20117;-57
2023/08/27 00:57:54;;;;;;;23.38;8.18;;;15.30;99.90;;;;;;5035087;28;20033;-57
2023/08/27 01:00:20;;;;;;;41.80;9.25;;;15.30;99.90;;;;;;5031246;28;20037;-57
2023/08/27 01:02:48;;;;;;;15.65;8.32;;;15.40;99.90;;;;;;5029479;28;20026;-57
2023/08/27 01:05:14;;;;;;;23.27;8.77;;;15.40;99.90;;;;;;5034247;28;20033;-58
2023/08/27 01:08:01;;;;;;;34.13;8.50;;;15.40;99.90;;;;;;5028048;28;20032;-57
2023/08/27 01:10:59;;;;;;;13.73;8.95;;;15.50;99.90;;;;;;5034013;28;20026;-58
2023/08/27 01:14:01;;;;;;;19.77;8.70;;;15.50;99.90;;;;;;5033628;28;20037;-58
2023/08/27 01:16:28;;;;;;;15.18;8.45;;;15.50;99.90;;;;;;5026053;28;20036;-57
2023/08/27 01:18:54;;;;;;;9.15;7.75;;;15.50;99.90;;;;;;5025371;28;20065;-56
2023/08/27 01:21:21;;;;;;;14.60;8.82;;;15.50;99.90;;;;;;5029906;28;20028;-55
2023/08/27 01:23:47;;;;;;;11.60;9.93;;;15.50;99.90;;;;;;5030235;28;20069;-57
2023/08/27 01:26:32;;;;;;;15.70;8.35;;;15.50;99.90;;;;;;5031513;28;20043;-57
2023/08/27 01:29:23;;;;;;;19.80;8.68;;;15.50;99.90;;;;;;5032214;28;20156;-58
2023/08/27 01:32:07;;;;;;;16.23;8.60;;;15.50;99.90;;;;;;5029978;28;20112;-56
2023/08/27 01:34:34;;;;;;;20.55;9.00;;;15.50;99.90;;;;;;5030590;28;20040;-58
2023/08/27 01:37:00;;;;;;;11.32;8.52;;;15.50;99.90;;;;;;5026773;28;20559;-55
2023/08/27 01:39:26;;;;;;;20.20;9.18;;;15.60;99.90;;;;;;5026397;28;20040;-57
2023/08/27 01:41:51;;;;;;;24.42;8.90;;;15.60;99.90;;;;;;5024108;28;20215;-57
2023/08/27 01:44:18;;;;;;;13.98;8.93;;;15.60;99.90;;;;;;5024285;28;20485;-58
2023/08/27 01:46:43;;;;;;;14.57;7.13;;;15.60;99.90;;;;;;5029744;28;20568;-59
2023/08/27 01:49:09;;;;;;;10.32;7.88;;;15.60;99.90;;;;;;5024940;28;20060;-57
2023/08/27 01:51:34;;;;;;;12.00;8.13;;;15.60;99.90;;;;;;5022599;28;20026;-57
2023/08/27 01:54:00;;;;;;;12.93;8.23;;;15.60;99.90;;;;;;5027495;28;20454;-58
2023/08/27 01:56:26;;;;;;;27.63;10.05;;;15.60;99.90;;;;;;5030591;28;20033;-56
2023/08/27 01:58:51;;;;;;;31.05;9.05;;;15.60;99.90;;;;;;5028484;28;20544;-57
2023/08/27 02:01:17;;;;;;;23.83;8.90;;;15.60;99.90;;;;;;5027618;28;20034;-58
2023/08/27 02:03:43;;;;;;;26.92;8.80;;;15.60;99.90;;;;;;5024467;28;20042;-59
2023/08/27 02:06:09;;;;;;;34.72;8.98;;;15.60;99.90;;;;;;5025895;28;20512;-57
2023/08/27 02:08:34;;;;;;;38.35;10.43;;;15.60;99.90;;;;;;5023767;28;20029;-57
2023/08/27 02:11:00;;;;;;;27.40;10.25;;;15.60;99.90;;;;;;5028841;28;20085;-56
2023/08/27 02:13:26;;;;;;;43.35;9.85;;;15.60;99.90;;;;;;5028035;28;20512;-58
2023/08/27 02:15:51;;;;;;;38.03;10.30;;;15.50;99.90;;;;;;5030174;28;20033;-59
2023/08/27 02:18:17;;;;;;;38.53;11.77;;;15.60;99.90;;;;;;5021685;28;20022;-57
2023/08/27 02:20:43;;;;;;;18.05;10.32;;;15.50;99.90;;;;;;5025872;28;20465;-58
2023/08/27 02:23:09;;;;;;;16.67;9.60;;;15.60;99.90;;;;;;5026231;28;20131;-58
2023/08/27 02:25:35;;;;;;;17.98;9.60;;;15.60;99.90;;;;;;5025508;28;20037;-57
2023/08/27 02:28:01;;;;;;;27.38;12.07;;;15.60;99.90;;;;;;5024600;28;20029;-58
2023/08/27 02:30:26;;;;;;;34.90;11.05;;;15.60;99.90;;;;;;5026089;28;20072;-57
2023/08/27 02:32:52;;;;;;;60.10;12.45;;;15.60;99.90;;;;;;5025137;28;20033;-58
2023/08/27 02:35:18;;;;;;;44.55;10.90;;;15.60;99.90;;;;;;5027591;28;20032;-59
2023/08/27 02:37:43;;;;;;;57.88;12.18;;;15.60;99.90;;;;;;5027757;28;20401;-59
2023/08/27 02:40:09;;;;;;;140.20;15.05;;;15.60;99.90;;;;;;5028037;28;20040;-57
2023/08/27 02:42:36;;;;;;;50.40;12.63;;;15.50;99.90;;;;;;5028889;28;20030;-58
2023/08/27 02:45:02;;;;;;;49.67;14.57;;;15.50;99.90;;;;;;5024542;28;20028;-58
2023/08/27 02:47:28;;;;;;;18.83;13.25;;;15.50;99.90;;;;;;5027841;28;20464;-58
2023/08/27 02:49:53;;;;;;;36.88;13.82;;;15.60;99.90;;;;;;5028836;28;20569;-58
2023/08/27 02:52:19;;;;;;;44.28;14.20;;;15.60;99.90;;;;;;5027692;28;20112;-58
2023/08/27 02:54:45;;;;;;;46.42;14.73;;;15.60;99.90;;;;;;5030735;28;20124;-57
2023/08/27 02:57:10;;;;;;;41.70;15.13;;;15.60;99.90;;;;;;5026071;28;20040;-59
2023/08/27 02:59:36;;;;;;;42.90;16.17;;;15.60;99.90;;;;;;5026996;28;20544;-59
2023/08/27 03:02:01;;;;;;;31.33;15.20;;;15.60;99.90;;;;;;5029227;28;20512;-58
2023/08/27 03:04:27;;;;;;;53.78;16.98;;;15.60;99.90;;;;;;5026933;28;20033;-58
2023/08/27 03:06:53;;;;;;;41.58;16.33;;;15.60;99.90;;;;;;5028007;28;20026;-57
2023/08/27 03:09:18;;;;;;;38.78;15.98;;;15.60;99.90;;;;;;5023976;28;20405;-58
2023/08/27 03:11:44;;;;;;;93.75;19.35;;;15.60;99.90;;;;;;5025930;28;20112;-56
2023/08/27 03:14:09;;;;;;;53.22;16.40;;;15.50;99.90;;;;;;5027828;28;20110;-57
2023/08/27 03:16:36;;;;;;;78.82;16.92;;;15.50;99.90;;;;;;5026208;28;20370;-56
2023/08/27 03:19:02;;;;;;;91.97;16.83;;;15.50;99.90;;;;;;5019997;28;20034;-56
2023/08/27 03:21:27;;;;;;;132.25;17.85;;;15.50;99.90;;;;;;5021906;28;20041;-58
2023/08/27 03:23:53;;;;;;;98.88;18.02;;;15.50;99.90;;;;;;5027505;28;20509;-58
2023/08/27 03:26:19;;;;;;;111.38;18.15;;;15.40;99.90;;;;;;5027074;28;20056;-57
2023/08/27 03:28:46;;;;;;;67.40;16.17;;;15.40;99.90;;;;;;5022495;28;20040;-58
2023/08/27 03:31:11;;;;;;;99.53;17.95;;;15.40;99.90;;;;;;5023294;28;20022;-57
2023/08/27 03:33:37;;;;;;;66.45;14.45;;;15.40;99.90;;;;;;5028515;28;20068;-57
2023/08/27 03:36:03;;;;;;;61.90;16.48;;;15.40;99.90;;;;;;5027720;28;20080;-61
2023/08/27 03:38:29;;;;;;;50.30;15.80;;;15.40;99.90;;;;;;5029130;28;20024;-58
2023/08/27 03:40:55;;;;;;;131.85;18.35;;;15.40;99.90;;;;;;5027643;28;20587;-58
2023/08/27 03:43:20;;;;;;;95.78;16.50;;;15.40;99.90;;;;;;5021698;28;20045;-58
2023/08/27 03:45:46;;;;;;;63.88;14.90;;;15.30;99.90;;;;;;5025964;28;20026;-58
2023/08/27 03:48:12;;;;;;;100.20;15.48;;;15.40;99.90;;;;;;5024731;28;20033;-58
2023/08/27 03:50:38;;;;;;;212.65;19.55;;;15.40;99.90;;;;;;5027742;28;20021;-58
2023/08/27 03:53:04;;;;;;;152.60;18.70;;;15.30;99.90;;;;;;5027383;28;20034;-58
2023/08/27 03:55:30;;;;;;;104.40;14.27;;;15.30;99.90;;;;;;5029451;28;20128;-57
2023/08/27 03:57:56;;;;;;;86.85;15.13;;;15.30;99.90;;;;;;5026645;28;20136;-59
2023/08/27 04:00:22;;;;;;;85.18;13.13;;;15.30;99.90;;;;;;5029851;28;20026;-56
2023/08/27 04:02:49;;;;;;;61.00;12.95;;;15.30;99.90;;;;;;5028447;28;20128;-56
2023/08/27 04:05:14;;;;;;;28.63;12.48;;;15.30;99.90;;;;;;5029149;28;20109;-56
2023/08/27 04:07:40;;;;;;;78.18;13.95;;;15.30;99.90;;;;;;5030024;28;20121;-57
2023/08/27 04:10:06;;;;;;;42.50;12.43;;;15.30;99.90;;;;;;5024663;28;20025;-57
2023/08/27 04:12:32;;;;;;;51.28;13.85;;;15.30;99.90;;;;;;5024699;28;20030;-57
2023/08/27 04:14:58;;;;;;;53.13;12.32;;;15.40;99.90;;;;;;5029750;28;20051;-58
2023/08/27 04:17:23;;;;;;;39.63;13.30;;;15.40;99.90;;;;;;5028191;28;20791;-56
2023/08/27 04:19:49;;;;;;;32.88;12.57;;;15.30;99.90;;;;;;5019436;28;20083;-56
2023/08/27 04:22:14;;;;;;;33.92;12.20;;;15.30;99.90;;;;;;5022811;28;20022;-57
2023/08/27 04:24:42;;;;;;;45.75;13.52;;;15.30;99.90;;;;;;5025337;28;20444;-56
2023/08/27 04:27:08;;;;;;;18.00;11.63;;;15.30;99.90;;;;;;5026768;28;20084;-57
2023/08/27 04:29:33;;;;;;;15.05;11.18;;;15.20;99.90;;;;;;5031820;28;20021;-58
2023/08/27 04:31:59;;;;;;;11.52;9.77;;;15.20;99.90;;;;;;5030799;28;20033;-57
2023/08/27 04:34:25;;;;;;;17.10;9.82;;;15.20;99.90;;;;;;5028689;28;20040;-58
2023/08/27 04:36:50;;;;;;;19.05;11.32;;;15.20;99.90;;;;;;5025927;28;20029;-56
2023/08/27 04:39:16;;;;;;;11.55;10.35;;;15.20;99.90;;;;;;5020799;28;20022;-56
2023/08/27 04:41:41;;;;;;;12.48;10.98;;;15.20;99.90;;;;;;5032635;28;20147;-57
2023/08/27 04:44:07;;;;;;;9.93;9.02;;;15.20;99.90;;;;;;5028983;28;20501;-58
2023/08/27 04:46:33;;;;;;;14.18;9.50;;;15.30;99.90;;;;;;5021895;28;20036;-58
2023/08/27 04:48:59;;;;;;;21.55;11.02;;;15.30;99.90;;;;;;5023681;28;20120;-56
2023/08/27 04:51:28;;;;;;;18.10;10.50;;;15.20;99.90;;;;;;5023063;28;20029;-56
2023/08/27 04:53:53;;;;;;;14.35;11.05;;;15.20;99.90;;;;;;5030523;28;20032;-59
2023/08/27 04:56:19;;;;;;;22.33;11.85;;;15.20;99.90;;;;;;5029679;28;20021;-58
2023/08/27 04:58:45;;;;;;;34.10;11.77;;;15.20;99.90;;;;;;5028017;28;20170;-57
2023/08/27 05:01:11;;;;;;;57.03;13.85;;;15.20;99.90;;;;;;5028655;28;20041;-58
2023/08/27 05:03:37;;;;;;;60.33;15.52;;;15.10;99.90;;;;;;5033414;28;20025;-59
2023/08/27 05:06:03;;;;;;;31.27;13.75;;;15.20;99.90;;;;;;5031373;28;20033;-58
2023/08/27 05:08:28;;;;;;;25.00;13.07;;;15.10;99.90;;;;;;5026010;28;20038;-59
2023/08/27 05:10:54;;;;;;;27.13;14.52;;;15.10;99.90;;;;;;5031349;28;20025;-58
2023/08/27 05:13:20;;;;;;;24.42;14.05;;;15.10;99.90;;;;;;5029035;28;20057;-58
2023/08/27 05:15:46;;;;;;;16.05;13.52;;;15.10;99.90;;;;;;5027255;28;20390;-59
2023/08/27 05:18:11;;;;;;;18.75;12.27;;;15.10;99.90;;;;;;5029142;28;20026;-57
2023/08/27 05:20:37;;;;;;;14.70;11.93;;;15.20;99.90;;;;;;5024392;28;20037;-58
2023/08/27 05:23:04;;;;;;;15.45;12.02;;;15.20;99.90;;;;;;5025684;28;20116;-57
2023/08/27 05:25:30;;;;;;;15.73;11.73;;;15.20;99.90;;;;;;5029599;28;20701;-59
2023/08/27 05:27:55;;;;;;;13.80;10.35;;;15.20;99.90;;;;;;5025453;28;20029;-57
2023/08/27 05:30:21;;;;;;;13.38;10.95;;;15.20;99.90;;;;;;5027013;28;20079;-56
2023/08/27 05:32:47;;;;;;;10.73;9.43;;;15.20;99.90;;;;;;5030289;28;20099;-56
2023/08/27 05:35:13;;;;;;;12.23;9.02;;;15.30;99.90;;;;;;5028185;28;20040;-59
2023/08/27 05:37:39;;;;;;;15.38;9.38;;;15.30;99.90;;;;;;5024734;28;20040;-58
2023/08/27 05:40:06;;;;;;;9.68;8.88;;;15.30;99.90;;;;;;5025562;28;20030;-57
2023/08/27 05:42:32;;;;;;;21.60;11.10;;;15.30;99.90;;;;;;5029190;28;20390;-59
2023/08/27 05:44:58;;;;;;;11.20;9.02;;;15.30;99.90;;;;;;5026318;28;20386;-59
2023/08/27 05:47:24;;;;;;;10.05;9.05;;;15.30;99.90;;;;;;5027064;28;20029;-58
2023/08/27 05:49:49;;;;;;;9.77;8.65;;;15.30;99.90;;;;;;5028251;28;20034;-57
2023/08/27 05:52:15;;;;;;;10.40;9.40;;;15.40;99.90;;;;;;5026165;28;20030;-58
2023/08/27 05:54:41;;;;;;;10.48;9.68;;;15.40;99.90;;;;;;5025409;28;20036;-58
2023/08/27 05:57:06;;;;;;;11.05;9.57;;;15.50;99.90;;;;;;5025450;28;20121;-57
2023/08/27 05:59:32;;;;;;;10.57;9.77;;;15.50;99.90;;;;;;5023509;28;20024;-57
2023/08/27 06:01:59;;;;;;;9.80;9.02;;;15.60;99.90;;;;;;5024510;28;20522;-57
2023/08/27 06:04:25;;;;;;;10.98;9.88;;;15.60;99.90;;;;;;5026468;28;20676;-57
2023/08/27 06:06:50;;;;;;;10.45;9.55;;;15.70;99.90;;;;;;5026630;28;20030;-58
2023/08/27 06:09:16;;;;;;;11.10;9.98;;;15.70;99.90;;;;;;5027827;28;20051;-57
2023/08/27 06:11:42;;;;;;;11.00;10.00;;;15.70;99.90;;;;;;5026072;28;20016;-59
2023/08/27 06:14:08;;;;;;;10.65;9.55;;;15.70;99.90;;;;;;5024188;28;20040;-59
2023/08/27 06:16:34;;;;;;;10.52;9.43;;;15.80;99.90;;;;;;5026088;28;20087;-59
2023/08/27 06:19:00;;;;;;;10.90;9.95;;;15.80;99.90;;;;;;5026387;28;20043;-58
2023/08/27 06:21:26;;;;;;;11.13;9.98;;;15.80;99.90;;;;;;5028387;28;20041;-58
2023/08/27 06:23:52;;;;;;;12.15;10.35;;;15.80;99.90;;;;;;5031756;28;20021;-57
2023/08/27 06:26:17;;;;;;;14.32;10.25;;;15.90;99.90;;;;;;5022771;28;20389;-58
2023/08/27 06:28:43;;;;;;;15.75;12.05;;;15.90;99.90;;;;;;5031419;28;20033;-57
2023/08/27 06:31:09;;;;;;;13.40;12.20;;;16.00;99.90;;;;;;5028862;28;20041;-57
2023/08/27 06:33:34;;;;;;;14.50;12.80;;;15.90;99.90;;;;;;5030788;28;20428;-59
2023/08/27 06:36:00;;;;;;;13.07;11.82;;;16.00;99.90;;;;;;5031785;28;20029;-57
2023/08/27 06:38:26;;;;;;;11.35;10.38;;;16.00;99.90;;;;;;5030196;28;20065;-58
2023/08/27 06:40:52;;;;;;;13.18;11.98;;;16.00;99.90;;;;;;5028366;28;20025;-59
2023/08/27 06:43:17;;;;;;;12.65;11.45;;;16.00;99.90;;;;;;5025016;28;20029;-58
2023/08/27 06:45:43;;;;;;;12.43;11.32;;;15.90;99.90;;;;;;5029464;28;20033;-57
2023/08/27 06:48:09;;;;;;;11.60;10.30;;;15.90;99.90;;;;;;5022490;28;20029;-58
2023/08/27 06:50:35;;;;;;;12.25;10.63;;;15.90;99.90;;;;;;5023265;28;20163;-58
2023/08/27 06:53:02;;;;;;;12.48;11.27;;;16.00;99.90;;;;;;5027935;28;20069;-59
2023/08/27 06:55:28;;;;;;;12.13;10.43;;;16.00;99.90;;;;;;5027377;28;20501;-58
2023/08/27 06:57:54;;;;;;;12.63;11.43;;;16.00;99.90;;;;;;5026572;28;20673;-57
2023/08/27 07:00:19;;;;;;;12.32;11.13;;;16.00;99.90;;;;;;5029794;28;20052;-55
2023/08/27 07:02:46;;;;;;;12.45;11.20;;;16.00;99.90;;;;;;5028041;28;20034;-57
2023/08/27 07:05:12;;;;;;;12.25;11.02;;;16.00;99.90;;;;;;5024031;28;20033;-58
2023/08/27 07:07:38;;;;;;;13.25;11.82;;;16.10;99.90;;;;;;5023487;28;20026;-57
2023/08/27 07:10:05;;;;;;;11.32;10.43;;;16.30;99.90;;;;;;5030949;28;20041;-58
2023/08/27 07:12:33;;;;;;;11.82;10.75;;;16.40;99.90;;;;;;5030699;28;20493;-57
2023/08/27 07:14:59;;;;;;;11.15;10.25;;;16.60;99.90;;;;;;5028868;28;20029;-58
2023/08/27 07:17:25;;;;;;;9.70;8.18;;;16.60;99.90;;;;;;5018939;28;20038;-57
2023/08/27 07:19:51;;;;;;;10.55;9.65;;;16.70;99.90;;;;;;5020033;28;20029;-58
2023/08/27 07:22:16;;;;;;;10.63;9.73;;;16.70;99.90;;;;;;5025270;28;20025;-57
2023/08/27 07:24:42;;;;;;;10.70;9.80;;;16.70;99.90;;;;;;5024465;28;20025;-58
2023/08/27 07:27:09;;;;;;;11.20;10.10;;;16.80;99.90;;;;;;5025556;28;20417;-57
2023/08/27 07:29:35;;;;;;;12.18;10.70;;;16.90;99.90;;;;;;5028288;28;20013;-57
2023/08/27 07:32:01;;;;;;;13.23;12.00;;;16.90;99.90;;;;;;5026422;28;20476;-58
2023/08/27 07:34:27;;;;;;;16.27;11.20;;;17.10;99.90;;;;;;5027440;28;20191;-58
2023/08/27 07:36:55;;;;;;;10.57;9.55;;;17.10;99.90;;;;;;5029760;28;20080;-59
2023/08/27 07:39:22;;;;;;;14.50;10.30;;;17.10;99.90;;;;;;5028929;28;20033;-59
2023/08/27 07:41:49;;;;;;;13.77;10.70;;;17.10;99.90;;;;;;5024103;28;20022;-58
2023/08/27 07:44:15;;;;;;;12.13;10.93;;;17.10;99.90;;;;;;5029468;28;20038;-58
2023/08/27 07:46:41;;;;;;;11.43;10.52;;;17.10;99.90;;;;;;5026765;28;20103;-57
2023/08/27 07:49:06;;;;;;;11.65;10.75;;;17.10;99.90;;;;;;5028516;28;20030;-59
2023/08/27 07:51:32;;;;;;;11.13;9.88;;;17.10;99.90;;;;;;5025187;28;20390;-58
2023/08/27 07:53:57;;;;;;;11.57;9.65;;;17.10;99.90;;;;;;5027674;28;20036;-58
2023/08/27 07:56:23;;;;;;;10.48;9.52;;;17.10;99.90;;;;;;5025378;28;20030;-58
2023/08/27 07:58:49;;;;;;;9.80;9.02;;;17.10;99.90;;;;;;5022082;28;20550;-60
2023/08/27 08:01:15;;;;;;;10.02;9.23;;;17.20;99.90;;;;;;5030508;28;20171;-57
2023/08/27 08:03:41;;;;;;;10.27;9.27;;;17.30;99.90;;;;;;5021279;28;20034;-58
2023/08/27 08:06:07;;;;;;;12.13;8.50;;;17.40;99.90;;;;;;5024334;28;20029;-59
2023/08/27 08:08:33;;;;;;;14.25;8.93;;;17.50;99.90;;;;;;5027605;28;20025;-58
2023/08/27 08:10:59;;;;;;;10.57;9.80;;;17.60;99.90;;;;;;5025180;28;20390;-59
2023/08/27 08:13:25;;;;;;;10.70;9.23;;;17.50;99.90;;;;;;5030621;28;20022;-58
2023/08/27 08:15:51;;;;;;;14.45;9.00;;;17.40;99.90;;;;;;5031426;28;20030;-57
2023/08/27 08:18:17;;;;;;;10.45;9.30;;;17.30;99.90;;;;;;5031628;28;20109;-57
2023/08/27 08:20:43;;;;;;;9.60;8.80;;;17.20;99.90;;;;;;5034507;28;20496;-59
2023/08/27 08:23:09;;;;;;;10.32;9.32;;;17.10;99.90;;;;;;5030549;28;20029;-58
2023/08/27 08:25:37;;;;;;;10.80;9.45;;;17.00;99.90;;;;;;5030611;28;20036;-59
2023/08/27 08:28:03;;;;;;;11.30;10.38;;;16.90;99.90;;;;;;5026777;28;20040;-59
2023/08/27 08:30:28;;;;;;;11.48;10.27;;;16.80;99.90;;;;;;5025020;28;20056;-57
2023/08/27 08:32:54;;;;;;;12.50;11.38;;;16.70;99.90;;;;;;5029863;28;20106;-58
2023/08/27 08:35:20;;;;;;;10.90;9.90;;;16.60;99.90;;;;;;5026073;28;20651;-58
2023/08/27 08:37:45;;;;;;;10.63;9.63;;;16.60;99.90;;;;;;5028003;28;20436;-58
2023/08/27 08:40:11;;;;;;;11.50;10.52;;;16.50;99.90;;;;;;5030165;28;20032;-57
2023/08/27 08:42:59;;;;;;;11.77;9.75;;;16.50;99.90;;;;;;5015883;28;20397;-59
2023/08/27 08:45:46;;;;;;;9.57;8.77;;;16.50;99.90;;;;;;5025180;28;20091;-58
2023/08/27 08:48:12;;;;;;;10.20;9.30;;;16.50;99.90;;;;;;5025057;28;20516;-58
2023/08/27 08:50:41;;;;;;;10.68;9.77;;;16.40;99.90;;;;;;5029874;28;20033;-59
2023/08/27 08:53:16;;;;;;;10.43;9.52;;;16.40;99.90;;;;;;5036900;28;20041;-59
2023/08/27 08:55:47;;;;;;;10.55;9.75;;;16.40;99.90;;;;;;5023210;28;20088;-57
2023/08/27 08:58:13;;;;;;;11.70;10.73;;;16.40;99.90;;;;;;5022560;28;20041;-59
2023/08/27 09:00:40;;;;;;;14.50;10.88;;;16.40;99.90;;;;;;5029540;28;20091;-59
2023/08/27 09:03:06;;;;;;;11.93;10.82;;;16.40;99.90;;;;;;5031159;28;20030;-60
2023/08/27 09:05:32;;;;;;;12.40;11.30;;;16.50;99.90;;;;;;5030903;28;20030;-58
2023/08/27 09:07:59;;;;;;;11.40;10.50;;;16.50;99.90;;;;;;5028903;28;20112;-57
2023/08/27 09:10:25;;;;;;;11.73;10.60;;;16.60;99.90;;;;;;5025717;28;20087;-57
2023/08/27 09:12:57;;;;;;;10.55;9.52;;;16.60;99.90;;;;;;5029880;28;20029;-58
2023/08/27 09:15:24;;;;;;;10.57;9.57;;;16.60;99.90;;;;;;5030771;28;20027;-57
2023/08/27 09:17:50;;;;;;;11.85;9.32;;;16.60;99.90;;;;;;5028149;28;20025;-58
2023/08/27 09:20:16;;;;;;;12.93;8.90;;;16.50;99.90;;;;;;5024696;28;20042;-57
2023/08/27 09:22:42;;;;;;;10.60;9.38;;;16.50;99.90;;;;;;5028690;28;20022;-59
2023/08/27 09:25:09;;;;;;;11.13;10.02;;;16.50;99.90;;;;;;5027840;28;20048;-58
2023/08/27 09:27:35;;;;;;;13.48;12.10;;;16.50;99.90;;;;;;5029040;28;20021;-59
2023/08/27 09:30:04;;;;;;;10.65;9.73;;;16.50;99.90;;;;;;5031323;28;20029;-59
2023/08/27 09:32:31;;;;;;;7.68;6.93;;;16.50;99.90;;;;;;5030743;28;20029;-59
2023/08/27 09:35:04;;;;;;;5.68;5.15;;;16.40;99.90;;;;;;5028125;28;20029;-58
2023/08/27 09:37:43;;;;;;;6.25;5.75;;;16.30;99.90;;;;;;5028003;28;20563;-57
2023/08/27 09:40:10;;;;;;;8.57;7.95;;;16.10;99.90;;;;;;5029860;28;20060;-57
2023/08/27 09:42:37;;;;;;;10.07;8.32;;;16.10;99.90;;;;;;5036809;28;20051;-59
2023/08/27 09:45:03;;;;;;;11.45;10.10;;;16.10;99.90;;;;;;5034606;28;20071;-58
2023/08/27 09:47:34;;;;;;;12.25;11.23;;;16.10;99.90;;;;;;5027618;28;20065;-58
2023/08/27 09:50:04;;;;;;;14.25;11.90;;;16.20;99.90;;;;;;5024312;28;20034;-57
2023/08/27 09:52:29;;;;;;;11.30;10.23;;;16.20;99.90;;;;;;5029497;28;20030;-57
2023/08/27 09:54:55;;;;;;;11.93;10.77;;;16.30;99.90;;;;;;5028192;28;20048;-58
2023/08/27 09:57:21;;;;;;;12.57;11.50;;;16.40;99.90;;;;;;5031291;28;20033;-59
2023/08/27 09:59:48;;;;;;;14.48;9.40;;;16.50;99.90;;;;;;5028890;28;20017;-59
2023/08/27 10:02:15;;;;;;;12.35;9.95;;;16.60;99.90;;;;;;5028688;28;20053;-58
2023/08/27 10:04:53;;;;;;;9.52;8.32;;;16.60;99.90;;;;;;5026370;28;20509;-59
2023/08/27 10:07:19;;;;;;;12.20;8.30;;;16.70;99.90;;;;;;5024780;28;20091;-57
2023/08/27 10:09:54;;;;;;;8.05;7.15;;;16.70;99.90;;;;;;5026439;28;20033;-59
2023/08/27 10:12:21;;;;;;;7.18;6.45;;;16.60;99.90;;;;;;5022903;28;20552;-59
2023/08/27 10:14:47;;;;;;;4.88;4.47;;;16.40;99.90;;;;;;5023346;28;20068;-57
2023/08/27 10:17:14;;;;;;;11.18;5.20;;;16.30;99.90;;;;;;5026517;28;20052;-59
2023/08/27 10:19:41;;;;;;;5.45;4.35;;;16.20;99.90;;;;;;5027612;28;20048;-58
2023/08/27 10:22:07;;;;;;;5.68;4.22;;;16.10;99.90;;;;;;5028291;28;20037;-57
2023/08/27 10:24:34;;;;;;;5.43;4.50;;;16.00;99.90;;;;;;5030119;28;20116;-57
2023/08/27 10:27:01;;;;;;;6.22;5.45;;;15.90;99.90;;;;;;5026016;28;20031;-59
2023/08/27 10:29:28;;;;;;;4.65;4.28;;;15.90;99.90;;;;;;5030281;28;20433;-58
2023/08/27 10:31:55;;;;;;;6.18;4.45;;;16.00;99.90;;;;;;5030227;28;20108;-58
2023/08/27 10:34:23;;;;;;;7.70;4.63;;;16.00;99.90;;;;;;5026287;28;20137;-57
2023/08/27 10:36:51;;;;;;;5.57;4.90;;;16.00;99.90;;;;;;5031723;28;20078;-57
2023/08/27 10:39:26;;;;;;;5.85;5.35;;;16.10;99.90;;;;;;5026468;28;20072;-58
2023/08/27 10:41:52;;;;;;;6.63;6.03;;;16.30;99.90;;;;;;5027581;28;20013;-55
2023/08/27 10:44:21;;;;;;;6.72;6.20;;;16.50;99.90;;;;;;5031137;28;20025;-58
2023/08/27 10:47:11;;;;;;;6.28;4.82;;;16.60;99.90;;;;;;5032081;28;20105;-57
2023/08/27 10:49:37;;;;;;;6.72;6.05;;;16.70;99.90;;;;;;5031632;28;20508;-57
2023/08/27 10:52:20;;;;;;;5.05;4.55;;;16.70;99.90;;;;;;5023825;28;20041;-56
2023/08/27 10:54:59;;;;;;;4.38;4.07;;;16.70;99.90;;;;;;5022118;28;20037;-58
2023/08/27 10:57:24;;;;;;;4.97;3.95;;;16.70;99.90;;;;;;5024979;28;20120;-57
2023/08/27 10:59:53;;;;;;;5.10;4.70;;;16.90;99.90;;;;;;5030874;28;20100;-58
2023/08/27 11:02:18;;;;;;;4.95;4.00;;;17.00;99.90;;;;;;5026193;28;20036;-59
2023/08/27 11:04:48;;;;;;;21.38;5.05;;;17.00;99.90;;;;;;5027651;28;20029;-59
2023/08/27 11:07:19;;;;;;;3.28;3.00;;;17.10;99.90;;;;;;5028586;28;20037;-59
2023/08/27 11:09:45;;;;;;;3.80;3.10;;;17.10;99.90;;;;;;5030186;28;20068;-59
2023/08/27 11:12:21;;;;;;;4.72;3.25;;;17.20;99.90;;;;;;5025322;28;20029;-59
2023/08/27 11:14:47;;;;;;;3.20;2.72;;;17.40;99.90;;;;;;5020401;28;20028;-57
2023/08/27 11:17:23;;;;;;;4.25;2.70;;;17.60;99.90;;;;;;5015808;28;20038;-59
2023/08/27 11:19:49;;;;;;;3.72;2.25;;;17.80;99.90;;;;;;5027715;28;20034;-58
2023/08/27 11:22:20;;;;;;;3.80;2.45;;;18.00;99.90;;;;;;5017039;28;20072;-60
2023/08/27 11:24:53;;;;;;;2.88;2.67;;;18.20;99.90;;;;;;5018889;28;20034;-56
2023/08/27 11:27:20;;;;;;;3.13;2.75;;;18.20;99.90;;;;;;5019870;28;20029;-57
2023/08/27 11:29:51;;;;;;;4.25;2.85;;;18.10;99.90;;;;;;5023879;28;20104;-56
2023/08/27 11:32:19;;;;;;;3.78;3.55;;;18.00;99.90;;;;;;5026884;28;20037;-60
2023/08/27 11:34:46;;;;;;;3.47;3.17;;;17.90;99.90;;;;;;5025870;28;20038;-58
2023/08/27 11:37:12;;;;;;;7.20;3.00;;;17.80;99.90;;;;;;5027005;28;20478;-58
2023/08/27 11:39:39;;;;;;;14.82;3.83;;;17.70;99.90;;;;;;5023170;28;20029;-59
2023/08/27 11:42:13;;;;;;;3.55;3.15;;;17.60;99.90;;;;;;5023410;28;20564;-57
2023/08/27 11:44:52;;;;;;;3.53;3.03;;;17.50;99.90;;;;;;5034099;28;20017;-60
2023/08/27 11:47:19;;;;;;;3.70;3.40;;;17.50;99.90;;;;;;5033874;28;20044;-59
2023/08/27 11:49:44;;;;;;;2.92;2.72;;;17.60;99.90;;;;;;5029359;28;20034;-58
2023/08/27 11:52:13;;;;;;;4.25;2.88;;;17.60;99.90;;;;;;5023347;28;20184;-58
2023/08/27 11:54:40;;;;;;;3.80;2.90;;;17.60;99.90;;;;;;5033325;28;20036;-59
2023/08/27 11:57:06;;;;;;;4.60;3.20;;;17.70;99.90;;;;;;5032130;28;20105;-59
2023/08/27 11:59:32;;;;;;;3.45;3.15;;;17.70;99.90;;;;;;5033095;28;20607;-57
2023/08/27 12:01:59;;;;;;;3.70;3.40;;;17.70;99.90;;;;;;5034214;28;20030;-58
2023/08/27 12:04:28;;;;;;;3.63;2.78;;;17.70;99.90;;;;;;5036546;28;20394;-60
2023/08/27 12:07:01;;;;;;;3.42;3.13;;;17.80;99.90;;;;;;5032545;28;20040;-58
2023/08/27 12:09:33;;;;;;;4.28;3.17;;;18.00;99.90;;;;;;5033647;28;20078;-57
2023/08/27 12:12:07;;;;;;;3.55;3.25;;;18.10;99.90;;;;;;5034471;28;20300;-59
2023/08/27 12:14:34;;;;;;;3.55;3.25;;;18.10;99.90;;;;;;5037521;28;20068;-58
2023/08/27 12:17:07;;;;;;;3.75;3.33;;;18.10;99.90;;;;;;5035548;28;20398;-58
2023/08/27 12:19:35;;;;;;;6.82;4.00;;;18.10;99.90;;;;;;5032541;28;20033;-58
2023/08/27 12:22:01;;;;;;;8.57;3.90;;;18.10;99.90;;;;;;5034035;28;20068;-58
2023/08/27 12:24:33;;;;;;;5.65;4.45;;;18.00;99.90;;;;;;5029283;28;20037;-57
2023/08/27 12:27:03;;;;;;;4.65;4.25;;;18.00;99.90;;;;;;5035309;28;20029;-59
2023/08/27 12:29:31;;;;;;;8.75;3.30;;;18.00;99.90;;;;;;5033878;28;20037;-58
2023/08/27 12:31:59;;;;;;;3.55;3.25;;;18.00;99.90;;;;;;5031758;28;20033;-59
2023/08/27 12:34:48;;;;;;;9.93;4.15;;;17.90;99.90;;;;;;5039841;28;20091;-58